SCTN

Chaitén Airport

Chaiten, Chile
METAR SCTN 210100Z AUTO VRB02KT //// R/////// // FEW012 OVC041 13/11 Q1016
Observed Flight Rules
Jan-21 @ 01:00 UTC (27 minutes ago)
Wind Clouds
Variable at 2 knots
  • Few at 1,200' AGL
  • Overcast at 4,100' AGL
Temperatures Readings
Current 13°C / 55°F
Dewpoint 11°C / 52°F
Humidity 88%
Altimeter 30" Hg
Pressure 1015.92 hPa
Elevation 4
METAR SCTN 210100Z AUTO VRB02KT //// R/////// // FEW012 OVC041 13/11 Q1016
Observed Flight Rules
Jan-21 @ 01:00 UTC
(27 minutes ago)
Wind
Variable at 2 knots
Clouds
  • Few at 1,200' AGL
  • Overcast at 4,100' AGL
Temperature Dewpoint
13°C / 55°F 11°C / 52°F
Humidity Altimeter Pressure
88% 30" Hg 1015.92 hPa